createdAt,value
2019-03-21T00:01:24.990Z,9.22
2019-03-21T00:03:56.764Z,9.30
2019-03-21T00:06:25.281Z,9.20
2019-03-21T00:08:53.706Z,9.23
2019-03-21T00:11:59.194Z,9.22
2019-03-21T00:14:32.228Z,9.23
2019-03-21T00:17:05.299Z,9.18
2019-03-21T00:19:35.741Z,9.24
2019-03-21T00:22:06.144Z,9.23
2019-03-21T00:24:38.059Z,9.28
2019-03-21T00:27:08.670Z,9.23
2019-03-21T00:29:37.258Z,9.23
2019-03-21T00:32:06.060Z,9.35
2019-03-21T00:34:34.865Z,9.34
2019-03-21T00:37:04.941Z,9.27
2019-03-21T00:39:36.798Z,9.28
2019-03-21T00:42:06.148Z,9.27
2019-03-21T00:44:40.071Z,9.32
2019-03-21T00:47:11.530Z,9.29
2019-03-21T00:49:41.003Z,9.28
2019-03-21T00:52:09.811Z,9.28
2019-03-21T00:54:40.703Z,9.27
2019-03-21T00:57:11.581Z,9.28
2019-03-21T00:59:42.428Z,9.27
2019-03-21T01:02:13.565Z,9.17
2019-03-21T01:04:44.454Z,9.20
2019-03-21T01:07:15.295Z,9.17
2019-03-21T01:09:47.486Z,9.17
2019-03-21T01:12:17.451Z,9.18
2019-03-21T01:14:50.499Z,9.20
2019-03-21T01:17:20.554Z,9.20
2019-03-21T01:19:52.544Z,9.22
2019-03-21T01:22:22.619Z,9.24
2019-03-21T01:24:53.674Z,9.22
2019-03-21T01:27:24.787Z,9.24
2019-03-21T01:29:55.714Z,9.19
2019-03-21T01:32:30.609Z,9.15
2019-03-21T01:35:00.882Z,9.05
2019-03-21T01:37:31.505Z,9.06
2019-03-21T01:40:01.336Z,9.02
2019-03-21T01:42:33.168Z,8.99
2019-03-21T01:45:04.807Z,9.09
2019-03-21T01:47:36.916Z,9.13
2019-03-21T01:50:09.414Z,9.09
2019-03-21T01:52:40.985Z,9.08
2019-03-21T01:55:13.167Z,9.01
2019-03-21T01:57:43.295Z,9.03
2019-03-21T02:00:32.563Z,9.13
2019-03-21T02:03:05.225Z,9.09
2019-03-21T02:05:34.473Z,9.01
2019-03-21T02:08:05.489Z,8.91
2019-03-21T02:10:37.696Z,8.96
2019-03-21T02:13:09.776Z,9.03
2019-03-21T02:15:38.201Z,8.99
2019-03-21T02:18:08.168Z,9.00
2019-03-21T02:20:42.801Z,9.00
2019-03-21T02:23:14.098Z,8.86
2019-03-21T02:25:47.682Z,8.86
2019-03-21T02:28:17.376Z,8.93
2019-03-21T02:30:52.074Z,8.91
2019-03-21T02:33:36.604Z,8.95
2019-03-21T02:36:09.482Z,8.91
2019-03-21T02:38:38.113Z,8.87
2019-03-21T02:41:09.804Z,8.84
2019-03-21T02:43:42.338Z,8.78
2019-03-21T02:46:12.146Z,8.77
2019-03-21T02:48:42.699Z,8.85
2019-03-21T02:51:11.294Z,8.89
2019-03-21T02:53:41.692Z,8.93
2019-03-21T02:56:25.866Z,8.92
2019-03-21T02:58:56.943Z,8.93
2019-03-21T03:01:28.979Z,8.93
2019-03-21T03:03:57.433Z,8.98
2019-03-21T03:06:27.618Z,9.00
2019-03-21T03:08:57.605Z,9.01
2019-03-21T03:11:29.205Z,8.99
2019-03-21T03:13:59.728Z,8.97
2019-03-21T03:16:29.350Z,8.97
2019-03-21T03:19:00.250Z,9.00
2019-03-21T03:21:30.136Z,9.01
2019-03-21T03:24:02.819Z,9.05
2019-03-21T03:26:35.982Z,9.12
2019-03-21T03:29:05.366Z,9.19
2019-03-21T03:31:35.418Z,9.22
2019-03-21T03:34:12.683Z,9.10
2019-03-21T03:36:42.640Z,9.10
2019-03-21T03:39:12.040Z,9.17
2019-03-21T03:41:43.935Z,9.16
2019-03-21T03:44:17.943Z,9.16
2019-03-21T03:46:48.624Z,9.07
2019-03-21T03:49:20.139Z,9.19
2019-03-21T03:51:49.749Z,9.20
2019-03-21T03:54:20.166Z,9.18
2019-03-21T03:56:53.472Z,9.12
2019-03-21T03:59:22.954Z,9.09
2019-03-21T04:04:45.172Z,9.14
2019-03-21T04:07:16.527Z,9.14
2019-03-21T04:09:45.494Z,9.14
2019-03-21T04:12:14.154Z,9.23
2019-03-21T04:14:45.296Z,9.22
2019-03-21T04:17:13.715Z,9.20
2019-03-21T04:19:42.166Z,9.13
2019-03-21T04:22:10.592Z,9.04
2019-03-21T04:24:39.037Z,9.08
2019-03-21T04:27:07.464Z,9.04
2019-03-21T04:29:35.909Z,8.93
2019-03-21T04:32:04.349Z,8.90
2019-03-21T04:34:32.796Z,8.93
2019-03-21T04:37:01.219Z,8.94
2019-03-21T04:39:29.644Z,9.01
2019-03-21T04:41:58.093Z,9.07
2019-03-21T04:44:26.508Z,9.20
2019-03-21T04:46:54.967Z,8.98
2019-03-21T04:49:23.399Z,8.73
2019-03-21T04:51:51.849Z,8.57
2019-03-21T04:54:20.274Z,8.48
2019-03-21T04:56:48.722Z,8.40
2019-03-21T04:59:17.148Z,8.37
2019-03-21T05:01:45.588Z,8.34
2019-03-21T05:04:14.015Z,8.32
2019-03-21T05:06:42.578Z,8.32
2019-03-21T05:09:13.336Z,8.32
2019-03-21T05:11:41.783Z,8.32
2019-03-21T05:14:10.203Z,8.30
2019-03-21T05:16:38.644Z,8.30
2019-03-21T05:19:07.071Z,8.32
2019-03-21T05:21:35.517Z,8.33
2019-03-21T05:24:03.937Z,8.37
2019-03-21T05:26:32.387Z,8.37
2019-03-21T05:29:00.807Z,8.38
2019-03-21T05:31:32.693Z,8.43
2019-03-21T05:34:01.182Z,8.45
2019-03-21T05:36:29.628Z,8.47
2019-03-21T05:38:58.062Z,8.46
2019-03-21T05:41:26.510Z,8.48
2019-03-21T05:43:58.337Z,8.50
2019-03-21T05:46:27.358Z,8.55
2019-03-21T05:48:55.855Z,8.57
2019-03-21T05:51:24.299Z,8.59
2019-03-21T05:53:52.730Z,8.63
2019-03-21T05:56:21.150Z,8.64
2019-03-21T05:58:49.659Z,8.68
2019-03-21T06:01:18.153Z,8.71
2019-03-21T06:03:50.539Z,8.73
2019-03-21T06:06:24.650Z,8.76
2019-03-21T06:08:53.098Z,8.78
2019-03-21T06:11:21.518Z,8.83
2019-03-21T06:13:49.962Z,8.86
2019-03-21T06:16:18.382Z,8.89
2019-03-21T06:18:53.049Z,8.91
2019-03-21T06:21:36.915Z,8.94
2019-03-21T06:24:40.442Z,8.97
2019-03-21T06:27:30.497Z,9.00
2019-03-21T06:29:59.054Z,9.05
2019-03-21T06:32:28.041Z,9.08
2019-03-21T06:34:57.600Z,9.11
2019-03-21T06:37:28.684Z,9.14
2019-03-21T06:39:56.806Z,9.17
2019-03-21T06:42:25.402Z,9.20
2019-03-21T06:44:53.821Z,9.22
2019-03-21T06:47:22.264Z,9.26
2019-03-21T06:49:50.677Z,9.31
2019-03-21T06:52:19.093Z,9.37
2019-03-21T06:54:47.540Z,9.42
2019-03-21T06:57:15.957Z,9.48
2019-03-21T06:59:44.405Z,9.53
2019-03-21T07:02:12.820Z,9.55
2019-03-21T07:04:41.338Z,9.57
2019-03-21T07:07:09.760Z,9.62
2019-03-21T07:09:38.199Z,9.69
2019-03-21T07:12:06.697Z,9.78
2019-03-21T07:14:35.140Z,9.87
2019-03-21T07:17:03.563Z,9.94
2019-03-21T07:19:32.015Z,10.02
2019-03-21T07:22:00.520Z,10.11
2019-03-21T07:24:28.953Z,10.22
2019-03-21T07:26:57.375Z,10.31
2019-03-21T07:29:25.831Z,10.37
2019-03-21T07:31:54.256Z,10.46
2019-03-21T07:34:22.701Z,10.58
2019-03-21T07:36:51.123Z,10.65
2019-03-21T07:39:19.577Z,10.72
2019-03-21T07:41:47.995Z,10.82
2019-03-21T07:44:16.450Z,10.92
2019-03-21T07:46:44.872Z,10.99
2019-03-21T07:49:13.517Z,11.06
2019-03-21T07:51:41.938Z,11.10
2019-03-21T07:54:10.387Z,11.16
2019-03-21T07:56:38.827Z,11.12
2019-03-21T07:59:07.266Z,11.16
2019-03-21T08:01:35.690Z,11.19
2019-03-21T08:04:04.221Z,11.19
2019-03-21T08:06:32.642Z,11.25
2019-03-21T08:09:01.094Z,11.26
2019-03-21T08:11:29.514Z,11.31
2019-03-21T08:13:57.967Z,11.38
2019-03-21T08:16:26.382Z,11.43
2019-03-21T08:18:54.825Z,11.49
2019-03-21T08:21:23.247Z,11.39
2019-03-21T08:23:51.699Z,11.38
2019-03-21T08:26:20.109Z,11.31
2019-03-21T08:28:48.563Z,11.22
2019-03-21T08:31:16.990Z,11.15
2019-03-21T08:33:45.425Z,11.01
2019-03-21T08:36:13.847Z,10.93
2019-03-21T08:38:42.424Z,10.85
2019-03-21T08:41:10.916Z,10.80
2019-03-21T08:43:39.363Z,10.79
2019-03-21T08:46:07.787Z,10.77
2019-03-21T08:48:36.209Z,10.81
2019-03-21T08:51:08.663Z,10.80
2019-03-21T08:53:34.909Z,10.91
2019-03-21T08:56:03.355Z,10.95
2019-03-21T08:58:31.848Z,11.05
2019-03-21T09:01:00.374Z,11.14
2019-03-21T09:03:28.810Z,11.21
2019-03-21T09:05:57.269Z,11.21
2019-03-21T09:08:25.687Z,11.22
2019-03-21T09:10:54.136Z,11.27
2019-03-21T09:13:22.559Z,11.22
2019-03-21T09:15:51.016Z,11.22
2019-03-21T09:18:19.442Z,11.28
2019-03-21T09:20:47.905Z,11.26
2019-03-21T09:23:16.327Z,11.39
2019-03-21T09:25:44.773Z,11.46
2019-03-21T09:28:14.333Z,11.52
2019-03-21T09:30:43.103Z,11.53
2019-03-21T09:33:11.520Z,11.51
2019-03-21T09:35:40.856Z,11.51
2019-03-21T09:38:09.273Z,11.47
2019-03-21T09:40:37.717Z,11.42
2019-03-21T09:43:06.131Z,11.38
2019-03-21T09:45:34.578Z,11.31
2019-03-21T09:48:03.006Z,11.37
2019-03-21T09:50:31.527Z,11.36
2019-03-21T09:53:00.015Z,11.35
2019-03-21T09:55:28.466Z,11.29
2019-03-21T09:57:56.889Z,11.32
2019-03-21T10:00:37.436Z,11.33
2019-03-21T10:03:06.331Z,11.39
2019-03-21T10:05:34.849Z,11.39
2019-03-21T10:08:03.406Z,11.38
2019-03-21T10:10:35.518Z,11.39
2019-03-21T10:13:04.818Z,11.44
2019-03-21T10:15:33.238Z,11.42
2019-03-21T10:18:01.693Z,11.41
2019-03-21T10:20:30.112Z,11.34
2019-03-21T10:22:58.559Z,11.39
2019-03-21T10:25:27.146Z,11.44
2019-03-21T10:27:55.617Z,11.46
2019-03-21T10:30:41.286Z,11.51
2019-03-21T10:33:12.140Z,11.59
2019-03-21T10:35:40.633Z,11.68
2019-03-21T10:38:09.313Z,11.71
2019-03-21T10:40:37.965Z,11.70
2019-03-21T10:43:07.230Z,11.72
2019-03-21T10:45:35.984Z,11.66
2019-03-21T10:48:04.669Z,11.65
2019-03-21T10:50:34.830Z,11.62
2019-03-21T10:53:03.919Z,11.58
2019-03-21T10:55:32.336Z,11.54
2019-03-21T10:58:00.858Z,11.53
2019-03-21T11:00:29.351Z,11.52
2019-03-21T11:02:57.830Z,11.50
2019-03-21T11:05:26.214Z,11.55
2019-03-21T11:07:54.736Z,11.52
2019-03-21T11:10:23.155Z,11.50
2019-03-21T11:12:51.772Z,11.54
2019-03-21T11:15:20.273Z,11.49
2019-03-21T11:17:49.259Z,11.59
2019-03-21T11:20:29.296Z,11.61
2019-03-21T11:22:57.819Z,11.59
2019-03-21T11:25:26.238Z,11.56
2019-03-21T11:27:54.683Z,11.58
2019-03-21T11:30:42.667Z,11.71
2019-03-21T11:33:11.255Z,11.86
2019-03-21T11:35:39.742Z,11.88
2019-03-21T11:38:08.260Z,11.96
2019-03-21T11:40:36.869Z,11.94
2019-03-21T11:43:07.733Z,11.88
2019-03-21T11:45:36.231Z,11.76
2019-03-21T11:48:05.310Z,11.64
2019-03-21T11:50:33.725Z,11.56
2019-03-21T11:53:02.247Z,11.51
2019-03-21T11:55:30.674Z,11.52
2019-03-21T11:57:59.113Z,11.59
2019-03-21T12:00:27.680Z,11.63
2019-03-21T12:02:56.119Z,11.63
2019-03-21T12:05:24.537Z,11.58
2019-03-21T12:07:52.992Z,11.73
2019-03-21T12:10:21.408Z,11.83
2019-03-21T12:12:49.924Z,11.78
2019-03-21T12:15:18.427Z,11.74
2019-03-21T12:17:46.902Z,11.66
2019-03-21T12:20:18.523Z,11.66
2019-03-21T12:22:47.439Z,11.52
2019-03-21T12:25:16.061Z,11.46
2019-03-21T12:27:44.479Z,11.41
2019-03-21T12:30:16.107Z,11.40
2019-03-21T12:32:44.594Z,11.35
2019-03-21T12:35:13.112Z,11.33
2019-03-21T12:37:41.534Z,11.40
2019-03-21T12:40:10.042Z,11.56
2019-03-21T12:42:38.458Z,11.54
2019-03-21T12:45:09.138Z,11.55
2019-03-21T12:47:37.559Z,11.47
2019-03-21T12:50:09.610Z,11.45
2019-03-21T12:52:41.684Z,11.50
2019-03-21T12:55:08.375Z,11.66
2019-03-21T12:57:36.803Z,11.81
2019-03-21T13:00:10.381Z,11.95
2019-03-21T13:02:38.881Z,11.93
2019-03-21T13:05:08.666Z,11.94
2019-03-21T13:07:37.166Z,11.94
2019-03-21T13:10:06.782Z,11.96
2019-03-21T13:12:35.204Z,11.92
2019-03-21T13:15:04.718Z,12.04
2019-03-21T13:17:33.140Z,12.26
2019-03-21T13:20:01.588Z,12.36
2019-03-21T13:22:30.010Z,12.63
2019-03-21T13:24:58.450Z,12.82
2019-03-21T13:27:26.866Z,12.95
2019-03-21T13:29:55.319Z,12.84
2019-03-21T13:32:23.739Z,12.88
2019-03-21T13:34:52.187Z,12.64
2019-03-21T13:37:20.607Z,12.69
2019-03-21T13:39:49.166Z,12.70
2019-03-21T13:42:17.588Z,12.49
2019-03-21T13:44:46.007Z,12.39
2019-03-21T13:47:14.459Z,12.44
2019-03-21T13:49:42.886Z,12.57
2019-03-21T13:52:11.335Z,12.53
2019-03-21T13:54:39.750Z,12.55
2019-03-21T13:57:08.399Z,12.54
2019-03-21T13:59:36.808Z,12.56
2019-03-21T14:02:05.327Z,12.59
2019-03-21T14:04:33.746Z,12.59
2019-03-21T14:07:02.199Z,12.62
2019-03-21T14:09:30.618Z,12.74
2019-03-21T14:11:59.064Z,12.74
2019-03-21T14:14:27.645Z,12.75
2019-03-21T14:16:56.094Z,12.74
2019-03-21T14:19:24.510Z,12.73
2019-03-21T14:21:52.964Z,12.68
2019-03-21T14:24:21.378Z,12.73
2019-03-21T14:26:49.829Z,12.69
2019-03-21T14:29:18.246Z,12.63
2019-03-21T14:31:46.694Z,12.63
2019-03-21T14:34:15.120Z,12.70
2019-03-21T14:36:43.562Z,12.63
2019-03-21T14:39:11.989Z,12.53
2019-03-21T14:41:40.435Z,12.45
2019-03-21T14:44:08.860Z,12.44
2019-03-21T14:46:37.308Z,12.41
2019-03-21T14:49:05.732Z,12.31
2019-03-21T14:51:34.182Z,12.30
2019-03-21T14:54:02.605Z,12.09
2019-03-21T14:56:31.054Z,11.91
2019-03-21T14:58:59.479Z,11.89
2019-03-21T15:01:27.930Z,11.87
2019-03-21T15:03:56.340Z,11.97
2019-03-21T15:06:24.885Z,11.99
2019-03-21T15:08:53.297Z,12.06
2019-03-21T15:11:21.744Z,12.05
2019-03-21T15:13:50.169Z,12.07
2019-03-21T15:16:18.617Z,12.06
2019-03-21T15:18:47.033Z,12.02
2019-03-21T15:21:15.483Z,12.04
2019-03-21T15:23:43.898Z,12.09
2019-03-21T15:26:12.327Z,12.10
2019-03-21T15:28:40.791Z,12.10
2019-03-21T15:31:09.202Z,12.06
2019-03-21T15:33:37.649Z,12.04
2019-03-21T15:36:06.064Z,11.96
2019-03-21T15:38:34.572Z,11.91
2019-03-21T15:41:03.061Z,11.90
2019-03-21T15:43:31.514Z,11.83
2019-03-21T15:46:00.006Z,11.85
2019-03-21T15:48:28.453Z,11.84
2019-03-21T15:51:04.261Z,11.79
2019-03-21T15:53:27.046Z,11.71
2019-03-21T15:55:55.471Z,11.62
2019-03-21T15:58:23.920Z,11.57
2019-03-21T16:00:52.340Z,11.50
2019-03-21T16:03:20.791Z,11.51
2019-03-21T16:05:49.213Z,11.52
2019-03-21T16:08:17.660Z,11.50
2019-03-21T16:10:46.082Z,11.48
2019-03-21T16:13:14.581Z,11.46
2019-03-21T16:15:43.020Z,11.43
2019-03-21T16:18:11.471Z,11.42
2019-03-21T16:20:39.897Z,11.40
2019-03-21T16:23:08.413Z,11.37
2019-03-21T16:25:36.844Z,11.31
2019-03-21T16:28:05.362Z,11.29
2019-03-21T16:30:33.847Z,11.27
2019-03-21T16:33:02.313Z,11.26
2019-03-21T16:35:30.722Z,11.26
2019-03-21T16:37:59.219Z,11.24
2019-03-21T16:40:27.664Z,11.22
2019-03-21T16:42:56.087Z,11.22
2019-03-21T16:45:24.540Z,11.19
2019-03-21T16:47:52.953Z,11.16
2019-03-21T16:50:21.403Z,11.14
2019-03-21T16:52:49.820Z,11.09
2019-03-21T16:55:18.267Z,11.05
2019-03-21T16:57:46.686Z,11.05
2019-03-21T17:00:19.276Z,11.01
2019-03-21T17:02:48.069Z,10.99
2019-03-21T17:05:16.601Z,10.96
2019-03-21T17:07:45.090Z,10.92
2019-03-21T17:10:17.922Z,10.88
2019-03-21T17:12:46.399Z,10.86
2019-03-21T17:15:15.562Z,10.88
2019-03-21T17:17:44.003Z,10.84
2019-03-21T17:20:13.034Z,10.82
2019-03-21T17:22:41.599Z,10.83
2019-03-21T17:25:10.574Z,10.84
2019-03-21T17:27:39.062Z,10.84
2019-03-21T17:30:17.357Z,10.81
2019-03-21T17:32:45.784Z,10.77
2019-03-21T17:35:14.371Z,10.76
2019-03-21T17:37:42.869Z,10.73
2019-03-21T17:40:13.420Z,10.70
2019-03-21T17:42:41.917Z,10.88
2019-03-21T17:45:15.917Z,11.06
2019-03-21T17:47:44.477Z,11.16
2019-03-21T17:50:18.067Z,11.19
2019-03-21T17:52:46.731Z,11.16
2019-03-21T17:55:15.250Z,11.11
2019-03-21T17:57:43.678Z,11.11
2019-03-21T18:00:18.561Z,11.13
2019-03-21T18:02:47.060Z,11.11
2019-03-21T18:05:15.703Z,11.13
2019-03-21T18:07:44.186Z,11.08
2019-03-21T18:10:23.938Z,11.14
2019-03-21T18:12:52.358Z,11.05
2019-03-21T18:15:20.802Z,11.05
2019-03-21T18:17:49.227Z,11.04
2019-03-21T18:20:17.664Z,11.04
2019-03-21T18:22:46.083Z,11.02
2019-03-21T18:25:14.654Z,11.08
2019-03-21T18:27:43.108Z,11.09
2019-03-21T18:30:11.910Z,11.13
2019-03-21T18:32:40.362Z,11.14
2019-03-21T18:35:08.950Z,11.11
2019-03-21T18:37:37.402Z,11.07
2019-03-21T18:40:07.458Z,11.00
2019-03-21T18:42:35.907Z,11.00
2019-03-21T18:45:08.622Z,11.05
2019-03-21T18:47:37.072Z,11.09
2019-03-21T18:50:09.226Z,11.13
2019-03-21T18:52:37.837Z,11.15
2019-03-21T18:55:08.094Z,11.08
2019-03-21T18:57:36.537Z,11.06
2019-03-21T19:00:17.432Z,11.09
2019-03-21T19:02:45.865Z,11.01
2019-03-21T19:05:14.351Z,11.08
2019-03-21T19:07:42.794Z,11.11
2019-03-21T19:10:13.434Z,11.10
2019-03-21T19:12:41.950Z,11.05
2019-03-21T19:15:12.412Z,11.04
2019-03-21T19:17:40.859Z,11.05
2019-03-21T19:20:11.813Z,11.08
2019-03-21T19:22:40.269Z,11.07
2019-03-21T19:25:18.405Z,11.10
2019-03-21T19:27:39.664Z,11.05
2019-03-21T19:30:11.002Z,11.03
2019-03-21T19:32:39.454Z,11.06
2019-03-21T19:35:08.216Z,11.06
2019-03-21T19:37:36.667Z,10.99
2019-03-21T19:40:10.956Z,10.99
2019-03-21T19:42:39.402Z,10.99
2019-03-21T19:45:10.966Z,10.98
2019-03-21T19:47:39.488Z,11.03
2019-03-21T19:50:15.028Z,11.00
2019-03-21T19:52:43.481Z,11.01
2019-03-21T19:55:12.133Z,10.98
2019-03-21T19:57:40.652Z,11.00
2019-03-21T20:00:18.007Z,11.01
2019-03-21T20:02:46.541Z,10.99
2019-03-21T20:05:15.023Z,10.98
2019-03-21T20:07:43.736Z,11.01
2019-03-21T20:10:18.641Z,10.99
2019-03-21T20:12:47.162Z,10.91
2019-03-21T20:15:17.119Z,10.90
2019-03-21T20:17:45.631Z,10.93
2019-03-21T20:20:18.983Z,10.89
2019-03-21T20:22:47.598Z,10.93
2019-03-21T20:25:16.485Z,10.88
2019-03-21T20:27:45.000Z,10.95
2019-03-21T20:30:16.529Z,10.94
2019-03-21T20:32:45.047Z,10.98
2019-03-21T20:35:13.477Z,11.04
2019-03-21T20:37:41.893Z,11.09
2019-03-21T20:40:12.786Z,10.95
2019-03-21T20:42:41.213Z,10.91
2019-03-21T20:45:11.799Z,10.95
2019-03-21T20:47:40.214Z,10.86
2019-03-21T20:50:09.299Z,10.70
2019-03-21T20:52:37.790Z,10.66
2019-03-21T20:55:07.578Z,10.65
2019-03-21T20:57:36.061Z,10.69
2019-03-21T21:00:07.918Z,10.72
2019-03-21T21:02:36.327Z,10.58
2019-03-21T21:05:05.524Z,10.52
2019-03-21T21:07:33.939Z,10.47
2019-03-21T21:10:02.389Z,10.46
2019-03-21T21:12:30.805Z,10.46
2019-03-21T21:14:59.258Z,10.41
2019-03-21T21:17:27.669Z,10.41
2019-03-21T21:19:56.119Z,10.42
2019-03-21T21:22:24.537Z,10.43
2019-03-21T21:24:52.984Z,10.43
2019-03-21T21:27:21.402Z,10.37
2019-03-21T21:29:49.916Z,10.36
2019-03-21T21:32:18.347Z,10.30
2019-03-21T21:34:46.789Z,10.22
2019-03-21T21:37:15.213Z,10.26
2019-03-21T21:39:43.656Z,10.27
2019-03-21T21:42:12.075Z,10.27
2019-03-21T21:44:40.523Z,10.29
2019-03-21T21:47:08.957Z,10.19
2019-03-21T21:49:37.405Z,10.21
2019-03-21T21:52:05.826Z,10.28
2019-03-21T21:54:34.285Z,10.26
2019-03-21T21:57:02.713Z,10.23
2019-03-21T21:59:31.159Z,10.34
2019-03-21T22:01:59.591Z,10.34
2019-03-21T22:04:28.013Z,10.30
2019-03-21T22:06:56.497Z,10.25
2019-03-21T22:09:24.880Z,10.28
2019-03-21T22:11:53.330Z,10.28
2019-03-21T22:14:21.744Z,10.23
2019-03-21T22:16:50.191Z,10.23
2019-03-21T22:19:18.625Z,10.19
2019-03-21T22:21:47.092Z,10.18
2019-03-21T22:24:15.510Z,10.21
2019-03-21T22:26:43.954Z,10.14
2019-03-21T22:29:12.397Z,10.16
2019-03-21T22:31:40.827Z,10.13
2019-03-21T22:34:09.252Z,10.08
2019-03-21T22:36:48.664Z,10.08
2019-03-21T22:39:07.915Z,10.14
2019-03-21T22:41:36.367Z,10.12
2019-03-21T22:44:04.854Z,10.17
2019-03-21T22:46:33.310Z,10.19
2019-03-21T22:49:01.727Z,10.13
2019-03-21T22:51:30.172Z,10.17
2019-03-21T22:53:58.603Z,10.12
2019-03-21T22:56:27.053Z,10.18
2019-03-21T22:58:55.470Z,10.11
2019-03-21T23:01:24.068Z,10.13
2019-03-21T23:03:52.561Z,10.08
2019-03-21T23:06:21.013Z,10.08
2019-03-21T23:08:49.439Z,10.03
2019-03-21T23:11:17.892Z,10.00
2019-03-21T23:13:46.309Z,9.94
2019-03-21T23:16:14.793Z,9.98
2019-03-21T23:18:43.237Z,9.99
2019-03-21T23:21:11.652Z,9.98
2019-03-21T23:23:40.104Z,10.01
2019-03-21T23:26:08.531Z,10.03
2019-03-21T23:28:36.974Z,9.99
2019-03-21T23:31:05.466Z,9.97
2019-03-21T23:33:33.916Z,9.93
2019-03-21T23:36:02.335Z,9.93
2019-03-21T23:38:30.779Z,9.95
2019-03-21T23:40:59.303Z,9.98
2019-03-21T23:43:27.758Z,10.01
2019-03-21T23:45:56.250Z,10.05
2019-03-21T23:48:24.695Z,9.97
2019-03-21T23:50:53.120Z,9.92
2019-03-21T23:53:21.563Z,9.93
2019-03-21T23:55:49.977Z,9.93
2019-03-21T23:58:18.416Z,9.92
